Weather History for Coatesville, PA

Change the Weather History Date:

Wednesday, March 7, 2012

  Actual Average (KLNS) Record (KLNS)
Temperature  
Mean Temperature 46 °F -  
Max Temperature 60 °F 45 °F 71 °F (2009)
Min Temperature 32 °F 26 °F 9 °F (1989)
Degree Days  
Heating Degree Days 19    
Moisture  
Dew Point 34 °F    
Average Humidity 64    
Maximum Humidity 100    
Minimum Humidity 34    
Precipitation  
Precipitation 0.00 in - - ()
Sea Level Pressure  
Sea Level Pressure 30.47 in    
Wind  
Wind Speed 5 mph (SSW)    
Max Wind Speed 10 mph    
Max Gust Speed 18 mph    
Visibility 10 miles    
Events      
Averages and records for this station are not official NWS values.
T = Trace of Precipitation, MM = Missing Value Source: NWS Daily Summary

Daily Weather History Graph

Daily Weather History Graph

Search for Another Location

Airport:

Trip Planner

Search our weather history database for the weather conditions in past years. The results will help you decide how hot, cold, wet, or windy it might be!

Date:

Astronomy

Mar. 07, 2012 Rise Set
Actual Time 6:26 AM EST 6:02 PM EST
Civil Twilight 5:59 AM EST 6:29 PM EST
Nautical Twilight 5:28 AM EST 7:00 PM EST
Astronomical Twilight 4:57 AM EST 7:32 PM EST
Moon 5:36 PM EST (3/7) 5:35 AM EST (3/7)
Length of Visible Light 12h 29m
Length of Day
11h 35m
Waxing Gibbous, 99% of the Moon is Illuminated
Mar 7
Waxing Gibbous
Mar 8
Full
Mar 14
Last Quarter
Mar 22
New
Mar 30
First Quarter

Hourly Weather History & Observations

Time (EST) Temp. Windchill Dew Point Humidity Pressure Visibility Wind Dir Wind Speed Gust Speed Precip Events Conditions
12:15 AM 33.8 °F 29.6 °F 26.6 °F 75% 30.57 in 10.0 mi South 4.6 mph - N/A   Clear
12:35 AM 33.8 °F 30.8 °F 28.4 °F 81% 30.57 in 10.0 mi South 3.5 mph - N/A   Clear
12:55 AM 33.8 °F 30.8 °F 28.4 °F 81% 30.56 in 10.0 mi South 3.5 mph - N/A   Clear
1:35 AM 32.0 °F 28.7 °F 28.4 °F 87% 30.56 in 10.0 mi SSE 3.5 mph - N/A   Partly Cloudy
1:55 AM 32.0 °F 28.7 °F 30.2 °F 93% 30.55 in 10.0 mi South 3.5 mph - N/A   Clear
2:15 AM 32.0 °F 28.7 °F 30.2 °F 93% 30.55 in 10.0 mi South 3.5 mph - N/A   Clear
2:35 AM 32.0 °F 28.7 °F 30.2 °F 93% 30.54 in 10.0 mi SSE 3.5 mph - N/A   Clear
2:55 AM 32.0 °F - 30.2 °F 93% 30.54 in 10.0 mi Calm Calm - N/A   Clear
3:15 AM 32.0 °F - 32.0 °F 100% 30.53 in 10.0 mi Calm Calm - N/A   Clear
3:35 AM 32.0 °F - 32.0 °F 100% 30.52 in 10.0 mi Calm Calm - N/A   Clear
3:55 AM 32.0 °F 28.7 °F 32.0 °F 100% 30.52 in 9.0 mi South 3.5 mph - N/A   Clear
4:15 AM 32.0 °F 28.7 °F 32.0 °F 100% 30.52 in 9.0 mi South 3.5 mph - N/A   Clear
4:55 AM 32.0 °F - 32.0 °F 100% 30.53 in 8.0 mi Calm Calm - N/A   Clear
5:15 AM 33.8 °F 29.6 °F 32.0 °F 93% 30.53 in 9.0 mi South 4.6 mph - N/A   Clear
5:55 AM 32.0 °F - 32.0 °F 100% 30.53 in 8.0 mi Calm Calm - N/A   Clear
6:15 AM 32.0 °F 28.7 °F 32.0 °F 100% 30.53 in 7.0 mi South 3.5 mph - N/A   Clear
6:35 AM 33.8 °F 29.6 °F 32.0 °F 93% 30.53 in 6.0 mi South 4.6 mph - N/A   Clear
6:55 AM 32.0 °F - 32.0 °F 100% 30.53 in 5.0 mi Calm Calm - N/A   Clear
7:15 AM 33.8 °F - 33.8 °F 100% 30.54 in 6.0 mi Calm Calm - N/A   Clear
7:55 AM 37.4 °F 34.9 °F 33.8 °F 87% 30.54 in 9.0 mi SSW 3.5 mph - N/A   Clear
8:15 AM 39.2 °F 37.0 °F 33.8 °F 81% 30.54 in 10.0 mi SW 3.5 mph - N/A   Clear
8:35 AM 41.0 °F 36.4 °F 33.8 °F 76% 30.54 in 10.0 mi WSW 6.9 mph - N/A   Clear
8:55 AM 44.6 °F 40.2 °F 33.8 °F 66% 30.54 in 10.0 mi SW 8.1 mph - N/A   Clear
9:15 AM 44.6 °F 39.7 °F 32.0 °F 61% 30.54 in 10.0 mi SSW 9.2 mph - N/A   Clear
9:35 AM 46.4 °F 42.4 °F 32.0 °F 57% 30.54 in 10.0 mi SW 8.1 mph - N/A   Clear
9:55 AM 48.2 °F - 32.0 °F 54% 30.53 in 10.0 mi South 8.1 mph - N/A   Clear
10:15 AM 50.0 °F - 32.0 °F 50% 30.52 in 10.0 mi SSW 5.8 mph - N/A   Clear
10:35 AM 51.8 °F - 30.2 °F 44% 30.52 in 10.0 mi SSW 4.6 mph - N/A   Clear
10:55 AM 53.6 °F - 32.0 °F 44% 30.52 in 10.0 mi South 8.1 mph - N/A   Clear
11:15 AM 53.6 °F - 32.0 °F 44% 30.51 in 10.0 mi SSW 5.8 mph - N/A   Clear
11:35 AM 55.4 °F - 30.2 °F 38% 30.50 in 10.0 mi WSW 6.9 mph - N/A   Clear
11:55 AM 55.4 °F - 32.0 °F 41% 30.49 in 10.0 mi SSW 8.1 mph - N/A   Clear
12:15 PM 57.2 °F - 32.0 °F 38% 30.48 in 10.0 mi SSW 6.9 mph - N/A   Clear
12:35 PM 57.2 °F - 32.0 °F 38% 30.47 in 10.0 mi SSW 9.2 mph - N/A   Clear
12:55 PM 57.2 °F - 32.0 °F 38% 30.46 in 10.0 mi South 5.8 mph - N/A   Clear
1:15 PM 57.2 °F - 33.8 °F 41% 30.45 in 10.0 mi South 8.1 mph - N/A   Clear
1:35 PM 59.0 °F - 33.8 °F 39% 30.44 in 10.0 mi South 5.8 mph - N/A   Clear
1:55 PM 59.0 °F - 33.8 °F 39% 30.43 in 10.0 mi South 6.9 mph - N/A   Clear
2:15 PM 60.8 °F - 32.0 °F 34% 30.42 in 10.0 mi South 9.2 mph - N/A   Clear
2:35 PM 60.8 °F - 32.0 °F 34% 30.42 in 10.0 mi SSW 8.1 mph - N/A   Clear
2:55 PM 60.8 °F - 32.0 °F 34% 30.41 in 10.0 mi South 6.9 mph 16.1 mph N/A   Clear
3:15 PM 60.8 °F - 32.0 °F 34% 30.41 in 10.0 mi SSW 10.4 mph 16.1 mph N/A   Clear
3:35 PM 60.8 °F - 32.0 °F 34% 30.40 in 10.0 mi South 6.9 mph 16.1 mph N/A   Clear
3:55 PM 60.8 °F - 33.8 °F 36% 30.40 in 10.0 mi South 9.2 mph 16.1 mph N/A   Clear
4:15 PM 60.8 °F - 33.8 °F 36% 30.39 in 10.0 mi South 4.6 mph - N/A   Clear
4:35 PM 59.0 °F - 35.6 °F 42% 30.39 in 10.0 mi South 6.9 mph - N/A   Clear
4:55 PM 59.0 °F - 35.6 °F 42% 30.38 in 10.0 mi South 6.9 mph - N/A   Clear
5:15 PM 59.0 °F - 35.6 °F 42% 30.37 in 10.0 mi South 5.8 mph - N/A   Clear
5:35 PM 57.2 °F - 39.2 °F 51% 30.37 in 10.0 mi South 9.2 mph - N/A   Clear
5:55 PM 57.2 °F - 39.2 °F 51% 30.37 in 10.0 mi South 9.2 mph 16.1 mph N/A   Clear
6:15 PM 57.2 °F - 41.0 °F 55% 30.38 in 10.0 mi South 6.9 mph - N/A   Clear
6:35 PM 55.4 °F - 42.8 °F 63% 30.38 in 10.0 mi South 5.8 mph - N/A   Clear
6:55 PM 57.2 °F - 42.8 °F 59% 30.38 in 10.0 mi South 9.2 mph - N/A   Clear
7:15 PM 55.4 °F - 42.8 °F 63% 30.37 in 10.0 mi South 6.9 mph - N/A   Clear
7:35 PM 57.2 °F - 42.8 °F 59% 30.37 in 10.0 mi SSW 8.1 mph - N/A   Clear
7:55 PM 57.2 °F - 42.8 °F 59% 30.36 in 10.0 mi SSW 10.4 mph 18.4 mph N/A   Clear
8:15 PM 57.2 °F - 42.8 °F 59% 30.37 in 10.0 mi SSW 9.2 mph 16.1 mph N/A   Clear
8:35 PM 55.4 °F - 42.8 °F 63% 30.37 in 10.0 mi South 9.2 mph - N/A   Clear
8:55 PM 55.4 °F - 44.6 °F 67% 30.37 in 10.0 mi SSW 6.9 mph - N/A   Clear
9:15 PM 55.4 °F - 44.6 °F 67% 30.36 in 10.0 mi SSW 8.1 mph - N/A   Clear
9:35 PM 55.4 °F - 44.6 °F 67% 30.36 in 10.0 mi South 5.8 mph - N/A   Clear
9:55 PM 55.4 °F - 44.6 °F 67% 30.35 in 10.0 mi South 3.5 mph - N/A   Clear
10:15 PM 55.4 °F - 44.6 °F 67% 30.35 in 10.0 mi SSW 6.9 mph - N/A   Clear
10:35 PM 55.4 °F - 44.6 °F 67% 30.34 in 10.0 mi SSW 8.1 mph - N/A   Clear
10:55 PM 53.6 °F - 44.6 °F 72% 30.34 in 10.0 mi SSW 6.9 mph - N/A   Clear
11:15 PM 53.6 °F - 44.6 °F 72% 30.34 in 10.0 mi SSW 6.9 mph - N/A   Clear
11:35 PM 53.6 °F - 44.6 °F 72% 30.34 in 10.0 mi SSW 6.9 mph - N/A   Clear
11:55 PM 53.6 °F - 44.6 °F 72% 30.33 in 10.0 mi SSW 8.1 mph - N/A   Clear